Time;durP1;ratioP1;P1;durP2;ratioP2;P2;SDS_P1;SDS_P2;PMS_P1;PMS_P2;Temp;Humidity;BMP_temperature;BMP_pressure;BME280_temperature;BME280_humidity;BME280_pressure;Samples;Min_cycle;Max_cycle;Signal;HPM_P1;HPM_P2
2023/07/29 00:01:01;;;;;;;10.53;6.37;;;;;;;;;;5075758;27;87510;-57
2023/07/29 00:03:32;;;;;;;13.23;6.87;;;;;;;;;;5073784;27;89609;-57
2023/07/29 00:06:01;;;;;;;11.73;6.27;;;;;;;;;;5082405;27;89467;-57
2023/07/29 00:08:29;;;;;;;11.13;7.27;;;;;;;;;;5071155;27;88826;-57
2023/07/29 00:10:59;;;;;;;12.53;6.90;;;;;;;;;;5062019;27;87976;-57
2023/07/29 00:13:28;;;;;;;12.60;7.17;;;;;;;;;;5067469;27;89620;-57
2023/07/29 00:15:57;;;;;;;10.53;6.83;;;;;;;;;;5064063;27;88873;-57
2023/07/29 00:18:25;;;;;;;10.97;6.43;;;;;;;;;;5069147;27;87452;-57
2023/07/29 00:20:54;;;;;;;9.50;6.00;;;;;;;;;;5082542;27;87907;-57
2023/07/29 00:23:22;;;;;;;12.67;6.23;;;;;;;;;;5067269;27;89458;-56
2023/07/29 00:25:51;;;;;;;9.60;5.90;;;;;;;;;;5068074;27;87752;-56
2023/07/29 00:28:21;;;;;;;9.77;6.30;;;;;;;;;;5076447;27;88838;-56
2023/07/29 00:30:56;;;;;;;10.10;6.10;;;;;;;;;;5081100;27;87583;-57
2023/07/29 00:33:24;;;;;;;12.97;6.00;;;;;;;;;;5082515;27;89756;-57
2023/07/29 00:35:53;;;;;;;11.10;6.13;;;;;;;;;;5082600;27;89479;-57
2023/07/29 00:38:21;;;;;;;11.67;5.80;;;;;;;;;;5081788;27;89119;-57
2023/07/29 00:40:50;;;;;;;11.80;5.87;;;;;;;;;;5082352;27;87635;-57
2023/07/29 00:43:20;;;;;;;10.00;5.20;;;;;;;;;;5081441;27;89780;-57
2023/07/29 00:45:50;;;;;;;11.63;6.17;;;;;;;;;;5069005;27;90243;-57
2023/07/29 00:48:19;;;;;;;7.40;5.10;;;;;;;;;;5082076;27;89802;-56
2023/07/29 00:50:48;;;;;;;7.97;5.23;;;;;;;;;;5077055;27;87903;-56
2023/07/29 00:53:16;;;;;;;12.33;5.63;;;;;;;;;;5079244;27;89760;-56
2023/07/29 00:55:49;;;;;;;9.10;5.10;;;;;;;;;;5080556;27;89108;-56
2023/07/29 00:58:17;;;;;;;8.43;5.17;;;;;;;;;;5081396;27;88772;-56
2023/07/29 01:00:46;;;;;;;10.00;5.47;;;;;;;;;;5082109;27;87279;-56
2023/07/29 01:03:16;;;;;;;7.40;4.57;;;;;;;;;;5062230;27;89568;-56
2023/07/29 01:05:47;;;;;;;7.37;4.60;;;;;;;;;;5077414;27;89465;-56
2023/07/29 01:08:18;;;;;;;9.33;5.27;;;;;;;;;;5071000;27;88650;-56
2023/07/29 01:10:49;;;;;;;5.40;4.17;;;;;;;;;;5081298;27;87876;-56
2023/07/29 01:13:21;;;;;;;8.90;4.50;;;;;;;;;;5074502;27;89264;-56
2023/07/29 01:15:52;;;;;;;7.67;4.87;;;;;;;;;;5077835;27;88976;-56
2023/07/29 01:18:24;;;;;;;8.63;4.37;;;;;;;;;;5078266;27;91670;-56
2023/07/29 01:20:53;;;;;;;7.23;4.50;;;;;;;;;;5070670;27;87716;-56
2023/07/29 01:23:26;;;;;;;7.40;3.97;;;;;;;;;;5080903;27;89815;-56
2023/07/29 01:25:54;;;;;;;7.37;4.60;;;;;;;;;;5081344;27;91539;-56
2023/07/29 01:28:23;;;;;;;7.53;4.77;;;;;;;;;;5081126;27;89079;-57
2023/07/29 01:30:56;;;;;;;7.73;4.13;;;;;;;;;;5077849;27;87730;-57
2023/07/29 01:33:27;;;;;;;9.13;4.97;;;;;;;;;;5080999;27;89562;-56
2023/07/29 01:35:56;;;;;;;7.90;4.90;;;;;;;;;;5074618;27;90248;-56
2023/07/29 01:38:34;;;;;;;9.83;4.23;;;;;;;;;;5079615;27;89502;-56
2023/07/29 01:41:04;;;;;;;6.87;3.50;;;;;;;;;;5081554;27;87093;-56
2023/07/29 01:43:33;;;;;;;5.17;3.47;;;;;;;;;;5064477;27;88308;-56
2023/07/29 01:46:01;;;;;;;5.27;3.80;;;;;;;;;;5060928;27;89315;-56
2023/07/29 01:48:31;;;;;;;7.67;4.20;;;;;;;;;;5060932;27;88908;-57
2023/07/29 01:51:00;;;;;;;6.60;3.60;;;;;;;;;;5060943;27;87382;-56
2023/07/29 01:53:35;;;;;;;7.83;3.47;;;;;;;;;;5073750;27;89667;-56
2023/07/29 01:56:03;;;;;;;5.60;3.77;;;;;;;;;;5061685;27;89080;-56
2023/07/29 01:58:32;;;;;;;4.13;2.90;;;;;;;;;;5061028;27;88832;-56
2023/07/29 02:01:00;;;;;;;5.37;3.17;;;;;;;;;;5060684;27;87964;-57
2023/07/29 02:03:30;;;;;;;7.63;3.37;;;;;;;;;;5060580;27;89741;-56
2023/07/29 02:06:00;;;;;;;5.67;3.67;;;;;;;;;;5060647;27;89203;-57
2023/07/29 02:08:32;;;;;;;5.63;3.47;;;;;;;;;;5060782;27;89027;-56
2023/07/29 02:11:00;;;;;;;5.30;2.73;;;;;;;;;;5062827;27;87326;-56
2023/07/29 02:13:32;;;;;;;4.20;2.97;;;;;;;;;;5064246;27;89625;-56
2023/07/29 02:16:02;;;;;;;4.87;3.13;;;;;;;;;;5063703;27;89157;-56
2023/07/29 02:18:30;;;;;;;5.17;2.47;;;;;;;;;;5064397;27;88735;-56
2023/07/29 02:21:03;;;;;;;5.87;3.00;;;;;;;;;;5064123;27;87515;-56
2023/07/29 02:23:33;;;;;;;4.07;2.90;;;;;;;;;;5064352;27;88518;-56
2023/07/29 02:26:05;;;;;;;3.60;2.70;;;;;;;;;;5080414;27;89990;-57
2023/07/29 02:28:35;;;;;;;4.43;2.70;;;;;;;;;;5080749;27;89624;-57
2023/07/29 02:31:15;;;;;;;5.07;2.60;;;;;;;;;;5084703;27;87511;-56
2023/07/29 02:33:46;;;;;;;6.43;3.07;;;;;;;;;;5083226;27;89459;-56
2023/07/29 02:36:15;;;;;;;4.63;2.83;;;;;;;;;;5083482;27;87453;-56
2023/07/29 02:38:47;;;;;;;5.63;3.00;;;;;;;;;;5084563;27;88807;-56
2023/07/29 02:41:16;;;;;;;3.67;2.17;;;;;;;;;;5083903;27;87548;-56
2023/07/29 02:43:44;;;;;;;4.57;2.30;;;;;;;;;;5076585;27;89612;-56
2023/07/29 02:46:13;;;;;;;3.33;2.00;;;;;;;;;;5066425;27;89324;-56
2023/07/29 02:48:41;;;;;;;3.53;1.93;;;;;;;;;;5084024;27;88508;-56
2023/07/29 02:51:12;;;;;;;4.70;1.77;;;;;;;;;;5084006;27;87704;-56
2023/07/29 02:53:42;;;;;;;2.93;1.60;;;;;;;;;;5083961;27;90652;-57
2023/07/29 02:56:12;;;;;;;3.10;2.03;;;;;;;;;;5083928;27;89157;-56
2023/07/29 02:58:41;;;;;;;4.17;2.47;;;;;;;;;;5083941;27;88725;-57
2023/07/29 03:01:09;;;;;;;2.03;1.87;;;;;;;;;;5073947;27;87594;-56
2023/07/29 03:03:38;;;;;;;2.47;1.87;;;;;;;;;;5063177;27;89744;-56
2023/07/29 03:06:07;;;;;;;2.30;1.63;;;;;;;;;;5063088;27;89135;-56
2023/07/29 03:08:40;;;;;;;2.63;1.80;;;;;;;;;;5068898;27;88560;-56
2023/07/29 03:11:10;;;;;;;2.40;1.57;;;;;;;;;;5084147;27;87575;-56
2023/07/29 03:13:40;;;;;;;2.50;1.50;;;;;;;;;;5083694;27;89703;-56
2023/07/29 03:16:11;;;;;;;3.00;1.70;;;;;;;;;;5082809;27;90158;-56
2023/07/29 03:18:40;;;;;;;3.10;1.53;;;;;;;;;;5068353;27;88107;-56
2023/07/29 03:21:08;;;;;;;2.80;1.57;;;;;;;;;;5063386;27;87686;-56
2023/07/29 03:23:38;;;;;;;3.83;1.57;;;;;;;;;;5062800;27;90233;-56
2023/07/29 03:26:10;;;;;;;2.50;1.43;;;;;;;;;;5074003;27;89278;-57
2023/07/29 03:28:43;;;;;;;2.13;1.67;;;;;;;;;;5083566;27;88838;-56
2023/07/29 03:31:12;;;;;;;2.90;1.60;;;;;;;;;;5083523;27;87374;-56
2023/07/29 03:33:46;;;;;;;1.70;1.10;;;;;;;;;;5083305;27;91287;-56
2023/07/29 03:36:15;;;;;;;2.00;1.27;;;;;;;;;;5063730;27;87436;-57
2023/07/29 03:38:45;;;;;;;2.43;1.47;;;;;;;;;;5062930;27;88903;-56
2023/07/29 03:41:14;;;;;;;1.47;1.23;;;;;;;;;;5062386;27;88002;-57
2023/07/29 03:43:50;;;;;;;2.70;1.43;;;;;;;;;;5061937;27;89682;-57
2023/07/29 03:46:21;;;;;;;1.77;1.33;;;;;;;;;;5062804;27;89117;-56
2023/07/29 03:48:50;;;;;;;2.90;1.83;;;;;;;;;;5062635;27;88641;-57
2023/07/29 03:51:18;;;;;;;3.53;1.50;;;;;;;;;;5063362;27;87563;-56
2023/07/29 03:53:48;;;;;;;2.07;1.57;;;;;;;;;;5062549;27;89638;-56
2023/07/29 03:56:17;;;;;;;2.30;1.80;;;;;;;;;;5062430;27;88888;-56
2023/07/29 03:58:49;;;;;;;2.37;1.57;;;;;;;;;;5061349;27;88897;-56
2023/07/29 04:01:18;;;;;;;2.63;1.73;;;;;;;;;;5054950;27;88238;-56
2023/07/29 04:03:46;;;;;;;2.03;1.73;;;;;;;;;;5053255;27;90710;-56
2023/07/29 04:06:19;;;;;;;3.50;1.63;;;;;;;;;;5057143;27;89788;-56
2023/07/29 04:08:49;;;;;;;2.73;1.47;;;;;;;;;;5052462;27;89781;-57
2023/07/29 04:11:19;;;;;;;1.93;1.57;;;;;;;;;;5052506;27;88560;-57
2023/07/29 04:13:49;;;;;;;1.77;1.33;;;;;;;;;;5053405;27;89701;-57
2023/07/29 04:16:20;;;;;;;1.57;1.30;;;;;;;;;;5052199;27;89333;-57
2023/07/29 04:18:49;;;;;;;2.63;1.20;;;;;;;;;;5052314;27;89554;-56
2023/07/29 04:21:17;;;;;;;2.70;1.80;;;;;;;;;;5059402;27;89305;-56
2023/07/29 04:23:46;;;;;;;1.77;1.20;;;;;;;;;;5053503;27;88158;-56
2023/07/29 04:26:14;;;;;;;3.17;1.90;;;;;;;;;;5055064;27;89928;-56
2023/07/29 04:28:43;;;;;;;1.63;1.40;;;;;;;;;;5064520;27;89226;-57
2023/07/29 04:31:15;;;;;;;2.03;1.10;;;;;;;;;;5061853;27;87946;-56
2023/07/29 04:33:44;;;;;;;1.83;1.40;;;;;;;;;;5068871;27;90064;-56
2023/07/29 04:36:12;;;;;;;3.60;1.70;;;;;;;;;;5082582;27;88800;-57
2023/07/29 04:38:43;;;;;;;1.83;1.20;;;;;;;;;;5082336;27;88865;-56
2023/07/29 04:41:12;;;;;;;1.63;1.07;;;;;;;;;;5082844;27;87087;-56
2023/07/29 04:43:44;;;;;;;1.50;1.33;;;;;;;;;;5067055;27;88688;-57
2023/07/29 04:46:16;;;;;;;1.17;1.00;;;;;;;;;;5061064;27;89018;-56
2023/07/29 04:48:48;;;;;;;2.37;1.10;;;;;;;;;;5070045;27;88830;-56
2023/07/29 04:51:17;;;;;;;1.27;1.13;;;;;;;;;;5081016;27;87474;-56
2023/07/29 04:53:46;;;;;;;2.53;1.60;;;;;;;;;;5082405;27;89593;-56
2023/07/29 04:56:14;;;;;;;1.20;1.10;;;;;;;;;;5081710;27;90415;-56
2023/07/29 04:58:45;;;;;;;2.83;1.10;;;;;;;;;;5082130;27;89767;-56
2023/07/29 05:01:15;;;;;;;1.93;0.90;;;;;;;;;;5076052;27;87639;-56
2023/07/29 05:03:44;;;;;;;1.80;1.30;;;;;;;;;;5062611;27;89903;-56
2023/07/29 05:06:12;;;;;;;1.07;0.97;;;;;;;;;;5060785;27;89046;-56
2023/07/29 05:08:41;;;;;;;1.50;0.90;;;;;;;;;;5061423;27;89154;-57
2023/07/29 05:11:13;;;;;;;1.63;1.13;;;;;;;;;;5061439;27;87670;-56
2023/07/29 05:13:43;;;;;;;1.67;1.13;;;;;;;;;;5061451;27;89718;-56
2023/07/29 05:16:12;;;;;;;2.03;1.50;;;;;;;;;;5060648;27;88270;-57
2023/07/29 05:18:42;;;;;;;2.00;1.57;;;;;;;;;;5051669;27;89958;-56
2023/07/29 05:21:11;;;;;;;2.13;1.60;;;;;;;;;;5051067;27;90266;-56
2023/07/29 05:23:39;;;;;;;2.40;1.50;;;;;;;;;;5050983;27;91323;-56
2023/07/29 05:26:08;;;;;;;1.97;1.30;;;;;;;;;;5050958;27;89065;-56
2023/07/29 05:28:36;;;;;;;3.13;1.33;;;;;;;;;;5061754;27;89581;-56
2023/07/29 05:31:05;;;;;;;2.13;1.70;;;;;;;;;;5080437;27;87512;-56
2023/07/29 05:33:33;;;;;;;2.43;1.70;;;;;;;;;;5068388;27;88398;-56
2023/07/29 05:36:06;;;;;;;3.47;1.53;;;;;;;;;;5060669;27;89230;-56
2023/07/29 05:38:35;;;;;;;3.53;1.57;;;;;;;;;;5061008;27;88737;-57
2023/07/29 05:41:07;;;;;;;2.53;1.60;;;;;;;;;;5061195;27;87376;-56
2023/07/29 05:43:36;;;;;;;3.70;1.60;;;;;;;;;;5060115;27;89835;-56
2023/07/29 05:46:04;;;;;;;2.60;1.93;;;;;;;;;;5061384;27;90002;-56
2023/07/29 05:48:33;;;;;;;2.67;1.70;;;;;;;;;;5064136;27;90425;-56
2023/07/29 05:51:05;;;;;;;3.60;1.80;;;;;;;;;;5064712;27;87611;-56
2023/07/29 05:53:34;;;;;;;2.27;1.43;;;;;;;;;;5064485;27;89646;-56
2023/07/29 05:56:03;;;;;;;2.13;1.17;;;;;;;;;;5067146;27;88027;-56
2023/07/29 05:58:31;;;;;;;2.07;1.40;;;;;;;;;;5084329;27;89109;-56
2023/07/29 06:01:00;;;;;;;4.80;1.97;;;;;;;;;;5082737;27;87605;-56
2023/07/29 06:03:28;;;;;;;2.37;1.47;;;;;;;;;;5081885;27;88833;-56
2023/07/29 06:05:57;;;;;;;1.40;1.20;;;;;;;;;;5080294;27;89050;-57
2023/07/29 06:08:28;;;;;;;1.70;1.37;;;;;;;;;;5064221;27;89143;-56
2023/07/29 06:10:58;;;;;;;3.47;2.00;;;;;;;;;;5064293;27;87795;-56
2023/07/29 06:13:27;;;;;;;2.80;1.70;;;;;;;;;;5063740;27;89611;-56
2023/07/29 06:15:56;;;;;;;2.00;1.50;;;;;;;;;;5063510;27;89054;-56
2023/07/29 06:18:24;;;;;;;2.50;1.50;;;;;;;;;;5065687;27;88772;-56
2023/07/29 06:20:53;;;;;;;6.47;1.73;;;;;;;;;;5064344;27;87603;-56
2023/07/29 06:23:21;;;;;;;2.07;1.80;;;;;;;;;;5064128;27;89668;-57
2023/07/29 06:25:50;;;;;;;2.63;2.00;;;;;;;;;;5063975;27;89039;-56
2023/07/29 06:28:22;;;;;;;2.73;1.77;;;;;;;;;;5078948;27;88801;-56
2023/07/29 06:30:51;;;;;;;2.33;1.60;;;;;;;;;;5080370;27;87527;-56
2023/07/29 06:33:19;;;;;;;2.83;1.70;;;;;;;;;;5075882;27;89271;-56
2023/07/29 06:35:50;;;;;;;2.17;1.60;;;;;;;;;;5063300;27;90125;-56
2023/07/29 06:38:21;;;;;;;2.60;1.70;;;;;;;;;;5063155;27;89550;-56
2023/07/29 06:40:50;;;;;;;3.63;1.67;;;;;;;;;;5082307;27;87705;-56
2023/07/29 06:43:21;;;;;;;1.93;1.30;;;;;;;;;;5083690;27;89596;-57
2023/07/29 06:45:51;;;;;;;2.80;1.67;;;;;;;;;;5080066;27;89006;-56
2023/07/29 06:48:22;;;;;;;2.43;1.50;;;;;;;;;;5081186;27;88896;-56
2023/07/29 06:50:51;;;;;;;2.20;1.27;;;;;;;;;;5080017;27;87644;-56
2023/07/29 06:53:20;;;;;;;1.57;1.47;;;;;;;;;;5081084;27;89669;-56
2023/07/29 06:55:49;;;;;;;1.50;1.30;;;;;;;;;;5079005;27;89485;-56
2023/07/29 06:58:19;;;;;;;2.50;1.17;;;;;;;;;;5059612;27;88774;-56
2023/07/29 07:00:49;;;;;;;1.27;1.10;;;;;;;;;;5060371;27;87908;-56
2023/07/29 07:03:18;;;;;;;1.83;1.53;;;;;;;;;;5060132;27;89648;-56
2023/07/29 07:05:48;;;;;;;1.93;1.40;;;;;;;;;;5060078;27;89105;-56
2023/07/29 07:08:17;;;;;;;1.47;1.37;;;;;;;;;;5072457;27;88162;-56
2023/07/29 07:10:46;;;;;;;1.47;1.10;;;;;;;;;;5064379;27;87667;-57
2023/07/29 07:13:19;;;;;;;1.53;0.83;;;;;;;;;;5060181;27;89759;-56
2023/07/29 07:15:51;;;;;;;1.43;1.03;;;;;;;;;;5060134;27;88157;-56
2023/07/29 07:18:22;;;;;;;1.30;1.10;;;;;;;;;;5060270;27;88948;-56
2023/07/29 07:20:50;;;;;;;3.50;1.40;;;;;;;;;;5060371;27;87666;-56
2023/07/29 07:23:19;;;;;;;1.50;1.10;;;;;;;;;;5071147;27;89610;-56
2023/07/29 07:25:48;;;;;;;1.20;0.93;;;;;;;;;;5079957;27;90198;-56
2023/07/29 07:28:17;;;;;;;2.43;0.97;;;;;;;;;;5080422;27;89030;-56
2023/07/29 07:30:46;;;;;;;1.63;0.83;;;;;;;;;;5080753;27;87686;-56
2023/07/29 07:33:15;;;;;;;2.23;0.90;;;;;;;;;;5066688;27;89847;-56
2023/07/29 07:35:44;;;;;;;1.60;1.10;;;;;;;;;;5059819;27;89077;-57
2023/07/29 07:38:13;;;;;;;1.97;1.67;;;;;;;;;;5059981;27;88851;-56
2023/07/29 07:40:43;;;;;;;4.67;1.13;;;;;;;;;;5059563;27;87644;-57
2023/07/29 07:43:14;;;;;;;1.87;0.83;;;;;;;;;;5077436;27;89620;-56
2023/07/29 07:45:42;;;;;;;1.43;1.00;;;;;;;;;;5079957;27;88987;-56
2023/07/29 07:48:13;;;;;;;1.07;0.97;;;;;;;;;;5079954;27;89241;-56
2023/07/29 07:50:43;;;;;;;1.47;1.10;;;;;;;;;;5079867;27;87875;-56
2023/07/29 07:53:15;;;;;;;1.20;0.90;;;;;;;;;;5077635;27;89685;-57
2023/07/29 07:55:47;;;;;;;1.07;0.97;;;;;;;;;;5079020;27;89212;-56
2023/07/29 07:58:15;;;;;;;0.77;0.60;;;;;;;;;;5079663;27;88810;-56
2023/07/29 08:00:44;;;;;;;0.93;0.93;;;;;;;;;;5076561;27;87842;-56
2023/07/29 08:03:14;;;;;;;1.00;0.90;;;;;;;;;;5059362;27;89604;-56
2023/07/29 08:05:45;;;;;;;3.57;1.37;;;;;;;;;;5059309;27;89067;-57
2023/07/29 08:08:16;;;;;;;2.33;1.50;;;;;;;;;;5057942;27;88949;-56
2023/07/29 08:10:44;;;;;;;2.37;1.60;;;;;;;;;;5059687;27;87677;-57
2023/07/29 08:13:13;;;;;;;1.47;0.90;;;;;;;;;;5076216;27;89674;-56
2023/07/29 08:15:41;;;;;;;2.10;1.47;;;;;;;;;;5077578;27;89712;-57
2023/07/29 08:18:10;;;;;;;1.40;1.30;;;;;;;;;;5079520;27;89793;-56
2023/07/29 08:20:40;;;;;;;1.50;0.87;;;;;;;;;;5077012;27;87528;-57
2023/07/29 08:23:11;;;;;;;4.20;1.50;;;;;;;;;;5077399;27;89979;-57
2023/07/29 08:25:40;;;;;;;1.50;1.40;;;;;;;;;;5079604;27;89148;-56
2023/07/29 08:28:13;;;;;;;1.33;0.87;;;;;;;;;;5078991;27;87713;-56
2023/07/29 08:30:41;;;;;;;2.00;1.40;;;;;;;;;;5078614;27;87513;-56
2023/07/29 08:33:15;;;;;;;1.83;1.37;;;;;;;;;;5075667;27;89453;-56
2023/07/29 08:35:43;;;;;;;2.83;1.70;;;;;;;;;;5070101;27;88251;-57
2023/07/29 08:38:13;;;;;;;1.83;1.37;;;;;;;;;;5078334;27;87898;-57
2023/07/29 08:40:43;;;;;;;1.20;1.07;;;;;;;;;;5072328;27;87923;-56
2023/07/29 08:43:14;;;;;;;1.93;1.30;;;;;;;;;;5058078;27;89694;-56
2023/07/29 08:45:42;;;;;;;2.57;1.27;;;;;;;;;;5061581;27;87515;-57
2023/07/29 08:48:11;;;;;;;2.73;1.60;;;;;;;;;;5079096;27;88616;-56
2023/07/29 08:50:40;;;;;;;3.00;1.20;;;;;;;;;;5079163;27;87626;-56
2023/07/29 08:53:08;;;;;;;2.50;1.33;;;;;;;;;;5079313;27;89431;-56
2023/07/29 08:55:38;;;;;;;2.30;1.40;;;;;;;;;;5079558;27;89102;-56
2023/07/29 08:58:07;;;;;;;1.80;1.37;;;;;;;;;;5068725;27;89949;-55
2023/07/29 09:00:36;;;;;;;2.20;1.43;;;;;;;;;;5060827;27;88121;-56
2023/07/29 09:03:06;;;;;;;2.70;1.50;;;;;;;;;;5078587;27;89501;-58
2023/07/29 09:05:35;;;;;;;2.43;1.70;;;;;;;;;;5077279;27;90003;-59
2023/07/29 09:08:04;;;;;;;2.30;1.37;;;;;;;;;;5078752;27;89871;-57
2023/07/29 09:10:35;;;;;;;5.90;1.60;;;;;;;;;;5073689;27;87716;-63
2023/07/29 09:13:05;;;;;;;2.23;1.53;;;;;;;;;;5058589;27;89852;-57
2023/07/29 09:15:35;;;;;;;4.00;2.33;;;;;;;;;;5070732;27;89125;-59
2023/07/29 09:18:10;;;;;;;6.90;2.57;;;;;;;;;;5078926;27;88859;-59
2023/07/29 09:20:39;;;;;;;7.80;2.43;;;;;;;;;;5078326;27;87905;-58
2023/07/29 09:23:10;;;;;;;4.63;2.00;;;;;;;;;;5077371;27;89808;-57
2023/07/29 09:25:40;;;;;;;3.60;1.70;;;;;;;;;;5065438;27;89067;-57
2023/07/29 09:28:15;;;;;;;3.10;1.90;;;;;;;;;;5074445;27;88817;-56
2023/07/29 09:30:48;;;;;;;2.33;1.30;;;;;;;;;;5066905;27;87878;-59
2023/07/29 09:33:17;;;;;;;2.97;1.30;;;;;;;;;;5061006;27;89545;-58
2023/07/29 09:35:49;;;;;;;3.67;1.40;;;;;;;;;;5057039;27;91000;-59
2023/07/29 09:38:17;;;;;;;4.30;1.53;;;;;;;;;;5058353;27;88836;-59
2023/07/29 09:40:46;;;;;;;1.40;1.10;;;;;;;;;;5067223;27;87676;-58
2023/07/29 09:43:16;;;;;;;2.93;1.13;;;;;;;;;;5065065;27;89712;-58
2023/07/29 09:45:46;;;;;;;1.97;1.40;;;;;;;;;;5057650;27;88829;-58
2023/07/29 09:48:15;;;;;;;1.10;0.90;;;;;;;;;;5057923;27;88938;-58
2023/07/29 09:50:43;;;;;;;3.80;1.20;;;;;;;;;;5057830;27;87635;-58
2023/07/29 09:53:12;;;;;;;1.50;1.37;;;;;;;;;;5058101;27;89363;-58
2023/07/29 09:55:42;;;;;;;1.10;0.83;;;;;;;;;;5057485;27;90132;-58
2023/07/29 09:58:11;;;;;;;1.00;1.00;;;;;;;;;;5057450;27;89793;-58
2023/07/29 10:00:44;;;;;;;1.03;0.90;;;;;;;;;;5057817;27;87646;-58
2023/07/29 10:03:15;;;;;;;2.00;0.80;;;;;;;;;;5057660;27;89309;-58
2023/07/29 10:05:45;;;;;;;0.80;0.80;;;;;;;;;;5057594;27;89039;-58
2023/07/29 10:08:14;;;;;;;1.23;0.90;;;;;;;;;;5056960;27;89889;-58
2023/07/29 10:10:45;;;;;;;1.17;0.93;;;;;;;;;;5056453;27;87622;-58
2023/07/29 10:13:14;;;;;;;0.77;0.77;;;;;;;;;;5056296;27;89719;-59
2023/07/29 10:15:49;;;;;;;2.50;0.93;;;;;;;;;;5056426;27;89182;-58
2023/07/29 10:18:21;;;;;;;1.50;1.00;;;;;;;;;;5056179;27;88715;-58
2023/07/29 10:20:49;;;;;;;0.70;0.70;;;;;;;;;;5055682;27;88451;-58
2023/07/29 10:23:20;;;;;;;2.30;0.80;;;;;;;;;;5056070;27;89674;-60
2023/07/29 10:25:53;;;;;;;1.47;1.00;;;;;;;;;;5067629;27;88985;-59
2023/07/29 10:28:22;;;;;;;1.40;0.50;;;;;;;;;;5071149;27;88838;-59
2023/07/29 10:30:52;;;;;;;0.97;0.57;;;;;;;;;;5077220;27;88530;-59
2023/07/29 10:33:21;;;;;;;2.17;0.70;;;;;;;;;;5080513;27;89792;-59
2023/07/29 10:35:49;;;;;;;0.90;0.53;;;;;;;;;;5081277;27;89333;-58
2023/07/29 10:38:18;;;;;;;1.77;0.53;;;;;;;;;;5081157;27;88872;-59
2023/07/29 10:40:47;;;;;;;1.17;0.90;;;;;;;;;;5081100;27;87730;-58
2023/07/29 10:43:20;;;;;;;0.97;0.70;;;;;;;;;;5073596;27;89708;-59
2023/07/29 10:45:48;;;;;;;1.13;0.80;;;;;;;;;;5059675;27;90121;-59
2023/07/29 10:48:45;;;;;;;0.83;0.83;;;;;;;;;;5069140;27;89700;-58
2023/07/29 10:51:26;;;;;;;4.23;0.90;;;;;;;;;;5060599;27;87438;-58
2023/07/29 10:53:55;;;;;;;1.03;0.60;;;;;;;;;;5060501;27;89908;-59
2023/07/29 10:56:26;;;;;;;2.03;1.03;;;;;;;;;;5060308;27;88889;-59
2023/07/29 10:58:58;;;;;;;1.23;0.63;;;;;;;;;;5060685;27;89024;-58
2023/07/29 11:01:33;;;;;;;1.50;0.90;;;;;;;;;;5081151;27;88189;-58
2023/07/29 11:04:16;;;;;;;0.70;0.70;;;;;;;;;;5080993;27;89696;-59
2023/07/29 11:07:00;;;;;;;2.57;0.90;;;;;;;;;;5072889;27;89193;-59
2023/07/29 11:09:44;;;;;;;1.00;0.60;;;;;;;;;;5067153;27;88839;-59
2023/07/29 11:12:29;;;;;;;7.20;0.70;;;;;;;;;;5080287;27;88531;-59
2023/07/29 11:14:58;;;;;;;1.10;0.90;;;;;;;;;;5080191;27;88160;-59
2023/07/29 11:17:27;;;;;;;0.73;0.63;;;;;;;;;;5080226;27;88960;-59
2023/07/29 11:19:55;;;;;;;3.13;1.10;;;;;;;;;;5078826;27;88802;-59
2023/07/29 11:22:24;;;;;;;1.23;0.87;;;;;;;;;;5080801;27;88224;-59
2023/07/29 11:24:54;;;;;;;0.97;0.80;;;;;;;;;;5080471;27;89659;-59
2023/07/29 11:27:22;;;;;;;2.77;1.17;;;;;;;;;;5080421;27;89096;-59
2023/07/29 11:29:53;;;;;;;1.67;1.13;;;;;;;;;;5080580;27;88918;-59
2023/07/29 11:32:23;;;;;;;1.27;0.97;;;;;;;;;;5079953;27;88274;-59
2023/07/29 11:34:52;;;;;;;1.97;0.90;;;;;;;;;;5080594;27;89661;-59
2023/07/29 11:37:21;;;;;;;1.27;0.93;;;;;;;;;;5079740;27;90164;-59
2023/07/29 11:39:51;;;;;;;1.80;0.90;;;;;;;;;;5079966;27;89841;-59
2023/07/29 11:42:23;;;;;;;2.60;1.20;;;;;;;;;;5079414;27;87674;-59
2023/07/29 11:44:53;;;;;;;1.00;0.90;;;;;;;;;;5080076;27;89640;-59
2023/07/29 11:47:21;;;;;;;1.10;1.00;;;;;;;;;;5080051;27;87884;-60
2023/07/29 11:49:50;;;;;;;0.83;0.83;;;;;;;;;;5079971;27;88823;-59
2023/07/29 11:52:19;;;;;;;2.90;1.00;;;;;;;;;;5072917;27;87731;-59
2023/07/29 11:54:49;;;;;;;3.13;0.90;;;;;;;;;;5059749;27;89541;-59
2023/07/29 11:57:19;;;;;;;2.30;1.27;;;;;;;;;;5059005;27;89218;-59
2023/07/29 11:59:48;;;;;;;1.03;0.73;;;;;;;;;;5059455;27;87489;-59
2023/07/29 12:02:21;;;;;;;1.10;1.00;;;;;;;;;;5059216;27;88005;-59
2023/07/29 12:04:50;;;;;;;1.27;0.90;;;;;;;;;;5059391;27;89690;-59
2023/07/29 12:07:18;;;;;;;1.13;0.73;;;;;;;;;;5059626;27;89233;-59
2023/07/29 12:09:48;;;;;;;1.33;1.00;;;;;;;;;;5058674;27;88742;-59
2023/07/29 12:12:17;;;;;;;0.93;0.80;;;;;;;;;;5061787;27;87803;-62
2023/07/29 12:14:47;;;;;;;2.60;0.80;;;;;;;;;;5058888;27;89758;-61
2023/07/29 12:17:17;;;;;;;2.67;1.87;;;;;;;;;;5059119;27;89213;-57
2023/07/29 12:19:46;;;;;;;2.23;1.87;;;;;;;;;;5061255;27;88914;-58
2023/07/29 12:22:22;;;;;;;1.77;1.60;;;;;;;;;;5075786;27;87428;-58
2023/07/29 12:24:52;;;;;;;1.73;1.30;;;;;;;;;;5074282;27;89929;-58
2023/07/29 12:27:24;;;;;;;1.83;1.27;;;;;;;;;;5058523;27;88718;-65
2023/07/29 12:29:53;;;;;;;1.77;1.10;;;;;;;;;;5067108;27;88981;-62
2023/07/29 12:32:26;;;;;;;3.57;1.50;;;;;;;;;;5079343;27;87728;-57
2023/07/29 12:34:57;;;;;;;2.30;1.40;;;;;;;;;;5079550;27;89793;-56
2023/07/29 12:37:38;;;;;;;1.20;1.10;;;;;;;;;;5079466;27;89363;-57
2023/07/29 12:40:08;;;;;;;1.43;1.00;;;;;;;;;;5079698;27;88150;-57
2023/07/29 12:42:37;;;;;;;1.67;1.30;;;;;;;;;;5078645;27;87725;-56
2023/07/29 12:45:06;;;;;;;1.27;0.90;;;;;;;;;;5078592;27;89677;-57
2023/07/29 12:47:37;;;;;;;1.77;1.33;;;;;;;;;;5079156;27;89303;-56
2023/07/29 12:50:08;;;;;;;1.43;1.33;;;;;;;;;;5078874;27;88878;-56
2023/07/29 12:52:36;;;;;;;1.30;1.03;;;;;;;;;;5078860;27;88451;-57
2023/07/29 12:55:06;;;;;;;2.33;1.07;;;;;;;;;;5078083;27;89626;-56
2023/07/29 12:57:34;;;;;;;2.07;1.03;;;;;;;;;;5078246;27;87917;-57
2023/07/29 13:00:03;;;;;;;1.50;0.87;;;;;;;;;;5078863;27;89064;-57
2023/07/29 13:02:32;;;;;;;1.77;1.10;;;;;;;;;;5076875;27;87604;-57
2023/07/29 13:05:02;;;;;;;1.77;1.00;;;;;;;;;;5057972;27;89667;-57
2023/07/29 13:07:30;;;;;;;2.50;1.13;;;;;;;;;;5058387;27;91961;-56
2023/07/29 13:09:59;;;;;;;2.00;1.30;;;;;;;;;;5058008;27;89104;-56
2023/07/29 13:12:27;;;;;;;1.77;1.13;;;;;;;;;;5057997;27;87857;-56
2023/07/29 13:14:55;;;;;;;5.63;1.10;;;;;;;;;;5058198;27;89842;-56
2023/07/29 13:17:25;;;;;;;1.80;1.00;;;;;;;;;;5057858;27;90033;-56
2023/07/29 13:19:55;;;;;;;4.43;1.30;;;;;;;;;;5058221;27;88645;-56
2023/07/29 13:22:26;;;;;;;2.83;0.83;;;;;;;;;;5058589;27;87959;-56
2023/07/29 13:24:55;;;;;;;1.00;0.90;;;;;;;;;;5058103;27;90037;-56
2023/07/29 13:27:24;;;;;;;1.87;0.70;;;;;;;;;;5057952;27;89031;-56
2023/07/29 13:29:52;;;;;;;1.80;0.87;;;;;;;;;;5058202;27;91359;-57
2023/07/29 13:32:22;;;;;;;2.97;1.03;;;;;;;;;;5058297;27;87404;-56
2023/07/29 13:34:51;;;;;;;1.17;0.90;;;;;;;;;;5058291;27;89720;-56
2023/07/29 13:37:19;;;;;;;5.90;1.10;;;;;;;;;;5057953;27;89230;-57
2023/07/29 13:39:52;;;;;;;1.10;1.00;;;;;;;;;;5058152;27;88963;-57
2023/07/29 13:42:20;;;;;;;2.40;0.90;;;;;;;;;;5056925;27;87987;-57
2023/07/29 13:44:49;;;;;;;1.23;0.87;;;;;;;;;;5057702;27;89547;-56
2023/07/29 13:47:19;;;;;;;1.87;0.90;;;;;;;;;;5057853;27;89106;-56
2023/07/29 13:49:47;;;;;;;1.83;0.90;;;;;;;;;;5057800;27;88830;-56
2023/07/29 13:52:17;;;;;;;1.27;0.80;;;;;;;;;;5058336;27;87498;-56
2023/07/29 13:54:45;;;;;;;1.43;1.03;;;;;;;;;;5057743;27;89590;-56
2023/07/29 13:57:15;;;;;;;1.47;1.07;;;;;;;;;;5057517;27;89072;-56
2023/07/29 13:59:45;;;;;;;3.20;1.10;;;;;;;;;;5057968;27;88883;-56
2023/07/29 14:02:13;;;;;;;1.37;1.00;;;;;;;;;;5057622;27;87663;-56
2023/07/29 14:04:42;;;;;;;1.77;1.10;;;;;;;;;;5057144;27;88530;-57
2023/07/29 14:07:10;;;;;;;3.60;1.37;;;;;;;;;;5058487;27;89893;-57
2023/07/29 14:09:40;;;;;;;4.17;1.70;;;;;;;;;;5060831;27;89745;-56
2023/07/29 14:12:15;;;;;;;3.20;1.60;;;;;;;;;;5061268;27;87962;-56
2023/07/29 14:14:45;;;;;;;2.57;1.53;;;;;;;;;;5069071;27;89641;-56
2023/07/29 14:17:14;;;;;;;1.50;1.40;;;;;;;;;;5081716;27;89162;-56
2023/07/29 14:19:42;;;;;;;3.50;1.80;;;;;;;;;;5084289;27;91486;-56
2023/07/29 14:22:12;;;;;;;3.03;2.10;;;;;;;;;;5084744;27;87620;-56
2023/07/29 14:24:40;;;;;;;2.37;1.73;;;;;;;;;;5084308;27;89637;-56
2023/07/29 14:27:10;;;;;;;3.83;1.60;;;;;;;;;;5084405;27;89130;-57
2023/07/29 14:29:39;;;;;;;6.10;1.90;;;;;;;;;;5084516;27;89044;-56
2023/07/29 14:32:10;;;;;;;1.83;1.33;;;;;;;;;;5084114;27;87931;-56
2023/07/29 14:34:39;;;;;;;2.43;1.93;;;;;;;;;;5084781;27;88514;-56
2023/07/29 14:37:08;;;;;;;2.13;1.57;;;;;;;;;;5084551;27;88690;-57
2023/07/29 14:39:36;;;;;;;2.30;1.90;;;;;;;;;;5083919;27;88807;-56
2023/07/29 14:42:07;;;;;;;2.33;2.13;;;;;;;;;;5083855;27;87596;-57
2023/07/29 14:44:36;;;;;;;2.03;1.60;;;;;;;;;;5084084;27;89604;-56
2023/07/29 14:47:05;;;;;;;4.63;1.90;;;;;;;;;;5084003;27;89180;-56
2023/07/29 14:49:35;;;;;;;3.30;2.23;;;;;;;;;;5084064;27;88722;-56
2023/07/29 14:52:04;;;;;;;2.87;1.70;;;;;;;;;;5084405;27;87665;-56
2023/07/29 14:54:32;;;;;;;1.57;1.47;;;;;;;;;;5083770;27;89732;-56
2023/07/29 14:57:01;;;;;;;2.23;1.77;;;;;;;;;;5083463;27;89690;-56
2023/07/29 14:59:30;;;;;;;2.47;1.70;;;;;;;;;;5083692;27;90158;-56